Data for 04/16/2009

Time Sea-Level Adjusted Pressure Absolute Pressure Temperature Relative Humidity Dew Point   
(mb) (inHg) (mb) (inHg) (C) (F) (%) (C) (F)
00:05 1018 30.06 848 25.04 -1.1 29.9 83 -3.7 25.3
00:10 1019 30.09 848 25.04 -1.1 30 82 -3.8 25.2
00:15 1019 30.09 848 25.04 -1 30.2 82 -3.8 25.2
00:20 1019 30.09 848 25.04 -1.4 29.4 86 -3.5 25.6
00:25 1019 30.09 848 25.04 -1.4 29.4 85 -3.6 25.6
00:30 1019 30.09 848 25.04 -1.5 29.2 85 -3.8 25.2
00:35 1019 30.09 848 25.04 -1.7 28.9 85 -3.9 24.9
00:40 1019 30.09 848 25.04 -1.6 29.1 84 -3.9 24.9
00:45 1019 30.09 848 25.04 -1.4 29.4 82 -4.1 24.6
00:50 1019 30.09 848 25.04 -1.2 29.8 84 -3.6 25.5
00:55 1019 30.09 848 25.04 -1.4 29.5 84 -3.7 25.3
01:00 1018 30.06 848 25.04 -1.7 29 86 -3.8 25.2
01:05 1018 30.06 848 25.04 -1.7 28.9 86 -3.8 25.2
01:10 1019 30.09 848 25.04 -1.8 28.7 86 -3.8 25.2
01:15 1019 30.09 848 25.04 -1.9 28.7 87 -3.8 25.1
01:20 1019 30.09 848 25.04 -1.9 28.7 87 -3.7 25.4
01:25 1019 30.09 848 25.04 -1.7 28.9 86 -3.7 25.4
01:30 1019 30.09 848 25.04 -1.8 28.8 87 -3.6 25.4
01:35 1019 30.09 848 25.04 -1.8 28.8 87 -3.7 25.3
01:40 1019 30.09 848 25.04 -2 28.5 88 -3.8 25.2
01:45 1019 30.09 848 25.04 -2 28.4 88 -3.8 25.2
01:50 1019 30.09 848 25.04 -2 28.4 86 -4 24.9
01:55 1019 30.09 848 25.04 -2 28.5 87 -3.9 25.1
02:00 1019 30.09 848 25.04 -1.9 28.6 86 -3.9 25
02:05 1019 30.09 848 25.04 -1.9 28.6 87 -3.7 25.3
02:10 1019 30.09 848 25.04 -1.9 28.6 88 -3.7 25.4
02:15 1019 30.09 848 25.04 -1.9 28.5 88 -3.7 25.4
02:20 1019 30.09 848 25.04 -1.9 28.5 88 -3.6 25.4
02:25 1019 30.09 848 25.04 -1.9 28.6 87 -3.7 25.3
02:30 1019 30.09 848 25.04 -2 28.4 88 -3.7 25.3
02:35 1019 30.09 848 25.04 -2 28.4 88 -3.7 25.3
02:40 1019 30.09 848 25.04 -2.1 28.2 89 -3.7 25.3
02:45 1019 30.09 848 25.04 -2.2 28 90 -3.7 25.4
02:50 1019 30.09 848 25.04 -2.2 28.1 89 -3.8 25.2
02:55 1019 30.09 848 25.04 -2.2 28 89 -3.7 25.3
03:00 1019 30.09 848 25.04 -2.2 28 90 -3.7 25.3
03:05 1019 30.09 848 25.04 -2.3 27.9 90 -3.7 25.3
03:10 1019 30.09 849 25.07 -2.3 27.9 89 -3.8 25.1
03:15 1019 30.09 849 25.07 -2.2 28.1 89 -3.7 25.3
03:20 1020 30.12 849 25.07 -2 28.3 89 -3.6 25.4
03:25 1019 30.09 849 25.07 -2.2 28.1 89 -3.7 25.4
03:30 1020 30.12 849 25.07 -2.2 28 90 -3.7 25.4
03:35 1020 30.12 849 25.07 -2.2 28 90 -3.7 25.4
03:40 1020 30.12 849 25.07 -2.3 27.9 90 -3.6 25.5
03:45 1020 30.12 849 25.07 -2.3 27.9 90 -3.7 25.4
03:50 1020 30.12 849 25.07 -2.3 27.9 90 -3.7 25.4
03:55 1020 30.12 849 25.07 -2.3 27.9 91 -3.6 25.5
04:00 1020 30.12 849 25.07 -2.2 28 89 -3.7 25.3
04:05 1020 30.12 849 25.07 -2.2 28.1 90 -3.6 25.4
04:10 1020 30.12 849 25.07 -2.2 28 89 -3.8 25.2
04:15 1020 30.12 849 25.07 -2.1 28.2 89 -3.7 25.4
04:20 1020 30.12 849 25.07 -2 28.4 89 -3.6 25.4
04:25 1020 30.12 849 25.07 -2.1 28.2 90 -3.6 25.6
04:30 1020 30.12 849 25.07 -2.2 28.1 90 -3.6 25.6
04:35 1020 30.12 849 25.07 -2.2 28.1 90 -3.6 25.5
04:40 1020 30.12 849 25.07 -2.2 28.1 90 -3.6 25.4
04:45 1020 30.12 849 25.07 -2.2 28.1 90 -3.6 25.6
04:50 1020 30.12 849 25.07 -2.2 28.1 90 -3.6 25.5
04:55 1020 30.12 849 25.07 -2.2 28 90 -3.6 25.5
05:00 1020 30.12 849 25.07 -2.2 28.1 90 -3.5 25.6
05:05 1020 30.12 850 25.1 -2.1 28.3 90 -3.5 25.8
05:10 1020 30.12 850 25.1 -2.1 28.2 90 -3.5 25.7
05:15 1021 30.15 850 25.1 -2.1 28.2 90 -3.5 25.7
05:20 1021 30.15 850 25.1 -2.1 28.2 90 -3.5 25.8
05:25 1021 30.15 850 25.1 -2.1 28.3 90 -3.5 25.7
05:30 1021 30.15 850 25.1 -2 28.4 89 -3.5 25.7
05:35 1021 30.15 850 25.1 -2 28.4 90 -3.5 25.7
05:40 1021 30.15 850 25.1 -1.9 28.6 89 -3.5 25.7
05:45 1021 30.15 850 25.1 -1.9 28.6 89 -3.5 25.8
05:50 1021 30.15 850 25.1 -1.9 28.6 89 -3.5 25.8
05:55 1021 30.15 850 25.1 -1.9 28.5 89 -3.5 25.7
06:00 1021 30.15 850 25.1 -2 28.5 89 -3.5 25.7
06:05 1021 30.15 850 25.1 -2 28.4 90 -3.5 25.7
06:10 1021 30.15 850 25.1 -1.9 28.5 90 -3.4 25.9
06:15 1021 30.15 850 25.1 -1.9 28.6 90 -3.4 25.9
06:20 1021 30.15 850 25.1 -1.9 28.6 89 -3.4 25.9
06:25 1021 30.15 850 25.1 -1.9 28.7 90 -3.3 26.1
06:30 1021 30.15 850 25.1 -1.9 28.7 90 -3.3 26
06:35 1021 30.15 850 25.1 -1.9 28.7 90 -3.3 26.1
06:40 1021 30.15 851 25.13 -1.8 28.7 90 -3.2 26.2
06:45 1021 30.15 851 25.13 -1.8 28.8 90 -3.2 26.2
06:50 1021 30.15 851 25.13 -1.8 28.7 90 -3.3 26.1
06:55 1021 30.15 851 25.13 -1.9 28.5 90 -3.3 26
07:00 1021 30.15 851 25.13 -1.9 28.6 91 -3.2 26.2
07:05 1022 30.18 851 25.13 -1.8 28.7 90 -3.3 26.1
07:10 1022 30.18 851 25.13 -1.8 28.8 89 -3.3 26.1
07:15 1022 30.18 851 25.13 -1.9 28.6 90 -3.2 26.2
07:20 1022 30.18 851 25.13 -2 28.4 90 -3.4 25.8
07:25 1022 30.18 851 25.13 -2 28.4 90 -3.4 25.9
07:30 1022 30.18 851 25.13 -2.1 28.3 91 -3.4 25.9
07:35 1022 30.18 851 25.13 -2 28.4 90 -3.4 25.8
07:40 1022 30.18 851 25.13 -2.1 28.3 90 -3.5 25.8
07:45 1022 30.18 851 25.13 -2.1 28.3 90 -3.4 25.8
07:50 1022 30.18 851 25.13 -1.7 29 88 -3.4 25.9
07:55 1022 30.18 851 25.13 -1.6 29.2 88 -3.3 26.1
08:00 1022 30.18 851 25.13 -1.6 29.2 88 -3.3 26.1
08:05 1022 30.18 851 25.13 -1.6 29.1 87 -3.5 25.8
08:10 1022 30.18 851 25.13 -1.6 29.1 87 -3.4 25.8
08:15 1022 30.18 851 25.13 -1.7 29 87 -3.5 25.7
08:20 1022 30.18 851 25.13 -1.6 29 87 -3.5 25.8
08:25 1022 30.18 851 25.13 -1.6 29.2 87 -3.4 25.8
08:30 1022 30.18 851 25.13 -1.5 29.3 86 -3.5 25.8
08:35 1022 30.18 851 25.13 -1.6 29.1 87 -3.6 25.6
08:40 1022 30.18 851 25.13 -1.7 29 87 -3.6 25.6
08:45 1022 30.18 852 25.16 -1.6 29.1 86 -3.6 25.5
08:50 1022 30.18 852 25.16 -1.5 29.4 86 -3.6 25.6
08:55 1022 30.18 852 25.16 -1.4 29.4 86 -3.5 25.7
09:00 1022 30.18 852 25.16 -1.2 29.9 83 -3.7 25.3
09:05 1022 30.18 852 25.16 -1.1 30 82 -3.8 25.2
09:10 1022 30.18 852 25.16 -1.1 30.1 82 -3.8 25.2
09:15 1022 30.18 852 25.16 -0.9 30.4 81 -3.7 25.4
09:20 1022 30.18 852 25.16 -0.7 30.7 81 -3.6 25.5
09:25 1022 30.18 852 25.16 0 32.1 77 -3.5 25.8
09:30 1023 30.21 852 25.16 0.5 32.9 77 -3.2 26.3
09:35 1023 30.21 852 25.16 0.6 33 75 -3.4 25.9
09:40 1023 30.21 852 25.16 0.4 32.7 76 -3.4 25.9
09:45 1023 30.21 852 25.16 0.6 33.1 73 -3.6 25.5
09:50 1023 30.21 852 25.16 0.5 32.9 77 -3.1 26.4
09:55 1023 30.21 852 25.16 0.2 32.4 76 -3.5 25.7
10:00 1023 30.21 852 25.16 0.4 32.7 75 -3.6 25.5
10:05 1023 30.21 852 25.16 0.3 32.5 76 -3.5 25.6
10:10 1023 30.21 852 25.16 0.6 33.1 73 -3.7 25.4
10:15 1023 30.21 852 25.16 0.4 32.7 76 -3.3 26
10:20 1023 30.21 852 25.16 0.3 32.5 77 -3.3 26.1
10:25 1023 30.21 852 25.16 0.6 33.1 74 -3.5 25.6
10:30 1023 30.21 852 25.16 1.3 34.3 72 -3.3 26
10:35 1023 30.21 852 25.16 1.8 35.2 70 -3.1 26.4
10:40 1023 30.21 852 25.16 1.7 35.1 69 -3.3 26
10:45 1023 30.21 852 25.16 1.5 34.7 71 -3.3 26.1
10:50 1023 30.21 852 25.16 1 33.9 74 -3 26.5
10:55 1023 30.21 852 25.16 1.2 34.2 72 -3.3 26.1
11:00 1023 30.21 852 25.16 1.4 34.5 72 -3.2 26.3
11:05 1023 30.21 852 25.16 0.9 33.7 74 -3.2 26.2
11:10 1023 30.21 852 25.16 0.8 33.5 75 -3.2 26.3
11:15 1023 30.21 852 25.16 1 33.8 73 -3.3 26
11:20 1023 30.21 852 25.16 1.3 34.4 71 -3.3 26
11:25 1023 30.21 852 25.16 1.8 35.3 70 -3 26.6
11:30 1023 30.21 852 25.16 1.6 34.9 70 -3.2 26.2
11:35 1023 30.21 852 25.16 1.4 34.6 71 -3.4 26
11:40 1023 30.21 852 25.16 1.9 35.5 69 -3.1 26.5
11:45 1023 30.21 853 25.19 2.3 36.1 71 -2.5 27.5
11:50 1023 30.21 853 25.19 2.2 35.9 71 -2.5 27.5
11:55 1023 30.21 853 25.19 2.3 36.1 71 -2.5 27.5
12:00 1023 30.21 853 25.19 2.2 36 72 -2.4 27.7
12:05 1023 30.21 853 25.19 2.1 35.8 71 -2.5 27.5
12:10 1023 30.21 853 25.19 1.8 35.2 74 -2.3 27.8
12:15 1023 30.21 853 25.19 2 35.7 71 -2.7 27.1
12:20 1023 30.21 853 25.19 2 35.6 71 -2.8 27
12:25 1023 30.21 853 25.19 1.3 34.4 74 -2.7 27.1
12:30 1023 30.21 853 25.19 1.3 34.4 74 -2.7 27.1
12:35 1023 30.21 853 25.19 1.8 35.2 71 -2.9 26.8
12:40 1024 30.24 853 25.19 1.7 35 74 -2.4 27.7
12:45 1024 30.24 853 25.19 1.5 34.8 73 -2.9 26.8
12:50 1023 30.21 853 25.19 1.4 34.5 75 -2.6 27.4
12:55 1024 30.24 853 25.19 1.2 34.1 74 -2.9 26.8
13:00 1024 30.24 853 25.19 1.7 35 72 -2.9 26.8
13:05 1024 30.24 853 25.19 2.1 35.9 71 -2.7 27.2
13:10 1024 30.24 853 25.19 1.7 35.1 72 -2.8 27
13:15 1024 30.24 853 25.19 1.6 34.8 74 -2.5 27.4
13:20 1024 30.24 853 25.19 1.4 34.5 74 -2.7 27.1
13:25 1024 30.24 853 25.19 1.9 35.3 72 -2.6 27.3
13:30 1024 30.24 853 25.19 2 35.6 72 -2.5 27.4
13:35 1024 30.24 853 25.19 2.3 36.1 69 -2.9 26.8
13:40 1024 30.24 853 25.19 2 35.6 71 -2.6 27.3
13:45 1024 30.24 853 25.19 1.7 35.1 72 -2.8 27
13:50 1024 30.24 853 25.19 1.5 34.8 71 -3.2 26.2
13:55 1024 30.24 853 25.19 1.7 35.1 71 -3 26.5
14:00 1024 30.24 853 25.19 1.8 35.3 71 -2.9 26.8
14:05 1024 30.24 853 25.19 1.8 35.2 71 -2.9 26.8
14:10 1024 30.24 853 25.19 1.3 34.3 73 -3.1 26.5
14:15 1024 30.24 853 25.19 1.8 35.2 71 -2.9 26.8
14:20 1024 30.24 853 25.19 1.2 34.2 74 -2.8 26.9
14:25 1024 30.24 853 25.19 1.1 34 72 -3.3 26
14:30 1024 30.24 853 25.19 1.4 34.4 72 -3.2 26.2
14:35 1024 30.24 853 25.19 1.3 34.3 71 -3.3 26
14:40 1024 30.24 853 25.19 1.7 35.1 71 -3 26.6
14:45 1024 30.24 853 25.19 1.2 34.2 72 -3.2 26.2
14:50 1024 30.24 854 25.22 1.9 35.4 71 -2.8 26.9
14:55 1024 30.24 854 25.22 2.2 36 71 -2.5 27.5
15:00 1024 30.24 854 25.22 1.6 34.9 73 -2.7 27.1
15:05 1024 30.24 854 25.22 1.4 34.6 73 -2.9 26.7
15:10 1024 30.24 854 25.22 1.8 35.2 70 -3.1 26.4
15:15 1024 30.24 854 25.22 2.4 36.3 69 -2.7 27.2
15:20 1024 30.24 854 25.22 2 35.6 69 -3.1 26.4
15:25 1024 30.24 854 25.22 2 35.6 70 -2.9 26.8
15:30 1024 30.24 854 25.22 2.2 36 69 -2.8 26.9
15:35 1024 30.24 854 25.22 2.3 36.2 67 -3.2 26.3
15:40 1024 30.24 854 25.22 2.4 36.3 67 -3.1 26.5
15:45 1024 30.24 854 25.22 3 37.4 64 -3.1 26.5
15:50 1024 30.24 854 25.22 3.2 37.8 64 -3 26.6
15:55 1024 30.24 854 25.22 3.4 38.1 62 -3.2 26.3
16:00 1024 30.24 854 25.22 3.3 37.9 64 -2.9 26.8
16:05 1024 30.24 854 25.22 3.3 37.9 63 -3 26.6
16:10 1024 30.24 854 25.22 3.2 37.8 66 -2.6 27.3
16:15 1025 30.27 854 25.22 2.7 36.8 68 -2.7 27.1
16:20 1025 30.27 854 25.22 2.5 36.4 66 -3.2 26.3
16:25 1025 30.27 854 25.22 2.2 36 69 -2.8 27
16:30 1025 30.27 854 25.22 2.1 35.7 71 -2.7 27.1
16:35 1025 30.27 854 25.22 1.8 35.2 71 -2.9 26.8
16:40 1025 30.27 854 25.22 1.9 35.4 70 -3 26.6
16:45 1025 30.27 854 25.22 1.8 35.2 72 -2.8 27
16:50 1025 30.27 854 25.22 1.9 35.4 70 -3.1 26.5
16:55 1025 30.27 854 25.22 2.2 35.9 69 -3 26.6
17:00 1025 30.27 854 25.22 2.8 37.1 67 -2.6 27.3
17:05 1025 30.27 854 25.22 3.2 37.7 66 -2.5 27.4
17:10 1025 30.27 854 25.22 3.2 37.7 65 -2.8 26.9
17:15 1025 30.27 854 25.22 3.2 37.8 65 -2.7 27.1
17:20 1025 30.27 854 25.22 3 37.4 66 -2.8 27
17:25 1025 30.27 854 25.22 2.9 37.2 67 -2.6 27.4
17:30 1025 30.27 854 25.22 3.2 37.7 65 -2.8 27
17:35 1025 30.27 854 25.22 3.1 37.5 66 -2.6 27.3
17:40 1025 30.27 854 25.22 2.8 37 67 -2.8 27
17:45 1025 30.27 854 25.22 2.4 36.3 68 -2.8 26.9
17:50 1025 30.27 854 25.22 2.4 36.3 68 -2.8 26.9
17:55 1025 30.27 854 25.22 2.4 36.3 70 -2.6 27.3
18:00 1025 30.27 854 25.22 2 35.6 71 -2.7 27.1
18:05 1025 30.27 854 25.22 1.8 35.3 71 -2.9 26.8
18:10 1025 30.27 854 25.22 1.7 35.1 72 -2.8 27
18:15 1025 30.27 854 25.22 1.7 35 72 -2.8 27
18:20 1025 30.27 854 25.22 1.5 34.7 73 -2.9 26.9
18:25 1025 30.27 854 25.22 1.4 34.6 74 -2.8 27
18:30 1025 30.27 854 25.22 1.3 34.4 73 -2.9 26.8
18:35 1025 30.27 854 25.22 1.3 34.3 74 -2.8 27
18:40 1025 30.27 854 25.22 1.3 34.3 74 -2.8 27
18:45 1025 30.27 854 25.22 1.3 34.4 74 -2.8 27
18:50 1025 30.27 854 25.22 1.5 34.7 73 -2.8 26.9
18:55 1025 30.27 854 25.22 1.4 34.5 75 -2.6 27.4
19:00 1025 30.27 854 25.22 1.4 34.5 74 -2.8 26.9
19:05 1025 30.27 854 25.22 1.4 34.5 73 -2.9 26.8
19:10 1025 30.27 854 25.22 1.4 34.6 73 -2.8 26.9
19:15 1025 30.27 854 25.22 1.5 34.7 73 -2.8 26.9
19:20 1025 30.27 855 25.25 1.7 35 72 -2.8 27
19:25 1025 30.27 855 25.25 1.7 35 72 -2.9 26.8
19:30 1025 30.27 855 25.25 1.7 35.1 72 -2.8 26.9
19:35 1025 30.27 855 25.25 1.6 35 72 -2.9 26.8
19:40 1025 30.27 855 25.25 1.7 35.1 72 -2.8 26.9
19:45 1026 30.3 855 25.25 1.7 35.1 71 -2.9 26.8
19:50 1026 30.3 855 25.25 1.5 34.7 72 -3 26.5
19:55 1026 30.3 855 25.25 1.3 34.4 72 -3.1 26.4
20:00 1026 30.3 855 25.25 1.3 34.3 73 -3.1 26.5
20:05 1026 30.3 855 25.25 1.3 34.4 74 -2.8 26.9
20:10 1026 30.3 855 25.25 1.4 34.6 73 -2.9 26.8
20:15 1026 30.3 855 25.25 1.3 34.4 75 -2.7 27.2
20:20 1026 30.3 855 25.25 1.4 34.4 75 -2.6 27.3
20:25 1026 30.3 855 25.25 1.4 34.6 76 -2.4 27.7
20:30 1026 30.3 855 25.25 1.4 34.4 77 -2.2 28.1
20:35 1026 30.3 855 25.25 1.3 34.3 76 -2.4 27.7
20:40 1026 30.3 855 25.25 1.2 34.1 78 -2.3 27.8
20:45 1026 30.3 855 25.25 1.2 34.2 78 -2.2 28
20:50 1026 30.3 855 25.25 1.1 34 80 -2 28.5
20:55 1026 30.3 855 25.25 1.1 34 80 -1.9 28.6
21:00 1026 30.3 855 25.25 1 33.8 80 -2 28.3
21:05 1026 30.3 856 25.28 0.9 33.7 82 -1.8 28.7
21:10 1026 30.3 856 25.28 0.9 33.6 81 -2 28.3
21:15 1026 30.3 856 25.28 0.8 33.4 81 -2.1 28.3
21:20 1026 30.3 856 25.28 0.7 33.3 82 -2.1 28.2
21:25 1026 30.3 856 25.28 0.8 33.4 82 -2 28.4
21:30 1026 30.3 856 25.28 0.8 33.4 81 -2.1 28.2
21:35 1026 30.3 856 25.28 0.7 33.3 81 -2.2 28
21:40 1026 30.3 856 25.28 0.7 33.3 81 -2.3 27.9
21:45 1026 30.3 856 25.28 0.7 33.2 81 -2.3 27.8
21:50 1026 30.3 856 25.28 0.7 33.2 81 -2.2 28
21:55 1026 30.3 856 25.28 0.6 33.2 80 -2.4 27.8
22:00 1027 30.33 856 25.28 0.6 33.2 81 -2.2 28.1
22:05 1027 30.33 856 25.28 0.7 33.3 81 -2.2 28
22:10 1027 30.33 856 25.28 0.7 33.3 81 -2.2 28
22:15 1027 30.33 856 25.28 0.8 33.4 81 -2.1 28.3
22:20 1027 30.33 856 25.28 0.8 33.5 82 -2 28.5
22:25 1027 30.33 856 25.28 0.8 33.4 82 -2 28.4
22:30 1027 30.33 856 25.28 0.7 33.3 82 -2 28.5
22:35 1027 30.33 856 25.28 0.8 33.4 81 -2.1 28.3
22:40 1027 30.33 856 25.28 0.8 33.5 82 -2 28.5
22:45 1027 30.33 856 25.28 0.8 33.5 82 -1.9 28.5
22:50 1027 30.33 856 25.28 0.8 33.4 82 -2 28.5
22:55 1027 30.33 856 25.28 0.8 33.4 82 -2 28.5
23:00 1027 30.33 856 25.28 0.8 33.5 82 -1.9 28.7
23:05 1027 30.33 856 25.28 0.9 33.7 81 -1.9 28.6
23:10 1027 30.33 856 25.28 1 33.8 81 -1.9 28.6
23:15 1027 30.33 856 25.28 0.8 33.5 82 -1.9 28.7
23:20 1027 30.33 856 25.28 0.6 33.1 84 -1.8 28.8
23:25 1027 30.33 856 25.28 0.5 32.9 84 -1.9 28.7
23:30 1027 30.33 856 25.28 0.5 32.8 85 -1.7 28.9
23:35 1027 30.33 856 25.28 0.4 32.8 84 -1.9 28.5
23:40 1027 30.33 856 25.28 0.4 32.8 85 -1.8 28.8
23:45 1027 30.33 856 25.28 0.4 32.7 86 -1.7 28.9
23:50 1027 30.33 856 25.28 0.4 32.7 86 -1.7 29
23:55 1027 30.33 856 25.28 0.4 32.7 87 -1.6 29.1
24:00 1027 30.33 856 25.28 0.4 32.7 86 -1.6 29.1